Current | Forecast
Updated: 6:00 PM WEST on April 23, 2018
Observed at Tetuan, Morocco
Temperature 19°C
Humidity 78%
Dew Point 15°C
Wind ENE at 18 km/h
Pressure 1011 hPa (Steady)
Conditions Scattered Clouds
Visibility 7.0 kilometers
UV 2 out of 16
Clouds (FEW) : 792 m
Scattered Clouds (SCT) : 6096 m
Yesterday's Maximum 18°C
Yesterday's Minimum 16°C approx.
Yesterday's Heating Degree Days 2 approx.
Sunrise6:39 AM WEST
Sunset8:02 PM WEST
Moon Rise1:19 PM WEST
Moon Set2:41 AM WEST
Moon PhaseMoon Phase
First Quarter
Raw METARMETAR GMTN 231700Z 07010KT 7000 FEW026 SCT200 19/15 Q1011 NOSIG


Monday
. High: 73° F.
Tuesday
. High: 71° F.
Wednesday
. High: 68° F.
Thursday
. High: 69° F.
Friday
. High: 68° F.
Saturday
. High: 69° F.
Sunday
. High: 73° F.
Monday
. High: 69° F.

Units: English | Metric

Find the Weather for any City, State or Zipcode, or Country:

U.S. State List | Severe Weather | Tropical Storms | Ski Conditions
United States | Canada | Central America | South America | Asia | Europe | Australia | Africa | Islands

Weather Underground

© Copyright 2018
The Weather Company, LLC